sensor_id;sensor_type;location;lat;lon;timestamp;temperature;humidity
5919;DHT22;2985;48.142;16.344;2022-09-23T00:03:14;8.10;99.90
5919;DHT22;2985;48.142;16.344;2022-09-23T00:08:24;8.20;99.90
5919;DHT22;2985;48.142;16.344;2022-09-23T00:13:35;8.20;99.90
5919;DHT22;2985;48.142;16.344;2022-09-23T00:18:44;8.00;99.90
5919;DHT22;2985;48.142;16.344;2022-09-23T00:23:54;8.00;99.90
5919;DHT22;2985;48.142;16.344;2022-09-23T00:29:04;7.90;99.90
5919;DHT22;2985;48.142;16.344;2022-09-23T00:34:13;7.90;99.90
5919;DHT22;2985;48.142;16.344;2022-09-23T00:39:23;7.90;99.90
5919;DHT22;2985;48.142;16.344;2022-09-23T00:55:19;7.80;99.90
5919;DHT22;2985;48.142;16.344;2022-09-23T01:00:29;7.80;99.90
5919;DHT22;2985;48.142;16.344;2022-09-23T01:05:39;7.70;99.90
5919;DHT22;2985;48.142;16.344;2022-09-23T01:11:16;7.60;99.90
5919;DHT22;2985;48.142;16.344;2022-09-23T01:16:36;7.60;99.90
5919;DHT22;2985;48.142;16.344;2022-09-23T01:38:51;7.30;99.90
5919;DHT22;2985;48.142;16.344;2022-09-23T01:43:59;7.20;99.90
5919;DHT22;2985;48.142;16.344;2022-09-23T01:49:21;7.20;99.90
5919;DHT22;2985;48.142;16.344;2022-09-23T01:54:49;7.30;99.90
5919;DHT22;2985;48.142;16.344;2022-09-23T02:00:13;7.40;99.90
5919;DHT22;2985;48.142;16.344;2022-09-23T02:05:32;7.40;99.90
5919;DHT22;2985;48.142;16.344;2022-09-23T02:15:47;7.40;99.90
5919;DHT22;2985;48.142;16.344;2022-09-23T02:21:04;7.40;99.90
5919;DHT22;2985;48.142;16.344;2022-09-23T02:26:29;7.40;99.90
5919;DHT22;2985;48.142;16.344;2022-09-23T02:32:10;7.40;99.90
5919;DHT22;2985;48.142;16.344;2022-09-23T02:43:13;7.30;99.90
5919;DHT22;2985;48.142;16.344;2022-09-23T02:48:43;7.20;99.90
5919;DHT22;2985;48.142;16.344;2022-09-23T02:53:55;7.20;99.90
5919;DHT22;2985;48.142;16.344;2022-09-23T02:59:06;7.20;99.90
5919;DHT22;2985;48.142;16.344;2022-09-23T03:04:44;7.30;99.90
5919;DHT22;2985;48.142;16.344;2022-09-23T03:21:21;7.00;99.90
5919;DHT22;2985;48.142;16.344;2022-09-23T03:26:33;7.00;99.90
5919;DHT22;2985;48.142;16.344;2022-09-23T03:31:44;7.00;99.90
5919;DHT22;2985;48.142;16.344;2022-09-23T03:37:08;6.90;99.90
5919;DHT22;2985;48.142;16.344;2022-09-23T03:42:25;6.90;99.90
5919;DHT22;2985;48.142;16.344;2022-09-23T03:47:35;6.90;99.90
5919;DHT22;2985;48.142;16.344;2022-09-23T03:52:45;6.90;99.90
5919;DHT22;2985;48.142;16.344;2022-09-23T03:57:55;7.00;99.90
5919;DHT22;2985;48.142;16.344;2022-09-23T04:03:04;7.00;99.90
5919;DHT22;2985;48.142;16.344;2022-09-23T04:08:13;7.00;99.90
5919;DHT22;2985;48.142;16.344;2022-09-23T04:13:23;6.90;99.90
5919;DHT22;2985;48.142;16.344;2022-09-23T04:18:32;6.80;99.90
5919;DHT22;2985;48.142;16.344;2022-09-23T04:23:41;6.80;99.90
5919;DHT22;2985;48.142;16.344;2022-09-23T04:28:50;6.80;99.90
5919;DHT22;2985;48.142;16.344;2022-09-23T04:33:59;6.90;99.90
5919;DHT22;2985;48.142;16.344;2022-09-23T04:39:09;6.80;99.90
5919;DHT22;2985;48.142;16.344;2022-09-23T04:44:19;6.80;99.90
5919;DHT22;2985;48.142;16.344;2022-09-23T04:49:29;6.80;99.90
5919;DHT22;2985;48.142;16.344;2022-09-23T04:54:40;6.70;99.90
5919;DHT22;2985;48.142;16.344;2022-09-23T04:59:50;6.80;99.90
5919;DHT22;2985;48.142;16.344;2022-09-23T05:04:59;6.80;99.90
5919;DHT22;2985;48.142;16.344;2022-09-23T05:10:09;6.80;99.90
5919;DHT22;2985;48.142;16.344;2022-09-23T05:15:18;6.80;99.90
5919;DHT22;2985;48.142;16.344;2022-09-23T05:20:29;6.90;99.90
5919;DHT22;2985;48.142;16.344;2022-09-23T05:25:38;7.10;99.90
5919;DHT22;2985;48.142;16.344;2022-09-23T05:30:50;7.10;99.90
5919;DHT22;2985;48.142;16.344;2022-09-23T05:36:01;7.20;99.90
5919;DHT22;2985;48.142;16.344;2022-09-23T05:41:12;7.30;99.90
5919;DHT22;2985;48.142;16.344;2022-09-23T05:46:24;7.20;99.90
5919;DHT22;2985;48.142;16.344;2022-09-23T05:51:36;7.40;99.90
5919;DHT22;2985;48.142;16.344;2022-09-23T05:56:45;7.70;99.90
5919;DHT22;2985;48.142;16.344;2022-09-23T06:01:54;8.00;99.90
5919;DHT22;2985;48.142;16.344;2022-09-23T06:07:04;8.00;99.90
5919;DHT22;2985;48.142;16.344;2022-09-23T06:12:13;8.10;99.90
5919;DHT22;2985;48.142;16.344;2022-09-23T06:17:22;8.30;99.90
5919;DHT22;2985;48.142;16.344;2022-09-23T06:29:12;8.60;99.90
5919;DHT22;2985;48.142;16.344;2022-09-23T06:34:22;8.80;99.90
5919;DHT22;2985;48.142;16.344;2022-09-23T06:39:31;8.90;99.90
5919;DHT22;2985;48.142;16.344;2022-09-23T06:44:41;9.10;99.90
5919;DHT22;2985;48.142;16.344;2022-09-23T06:49:50;9.20;99.90
5919;DHT22;2985;48.142;16.344;2022-09-23T06:54:59;9.30;99.90
5919;DHT22;2985;48.142;16.344;2022-09-23T07:00:09;9.50;99.90
5919;DHT22;2985;48.142;16.344;2022-09-23T07:05:19;9.70;99.90
5919;DHT22;2985;48.142;16.344;2022-09-23T07:10:30;9.70;99.90
5919;DHT22;2985;48.142;16.344;2022-09-23T07:15:39;9.80;99.90
5919;DHT22;2985;48.142;16.344;2022-09-23T07:20:49;10.00;99.90
5919;DHT22;2985;48.142;16.344;2022-09-23T07:25:58;10.20;99.90
5919;DHT22;2985;48.142;16.344;2022-09-23T07:31:10;10.40;99.90
5919;DHT22;2985;48.142;16.344;2022-09-23T07:36:20;10.50;99.90
5919;DHT22;2985;48.142;16.344;2022-09-23T07:41:31;10.60;99.90
5919;DHT22;2985;48.142;16.344;2022-09-23T07:46:40;10.80;99.90
5919;DHT22;2985;48.142;16.344;2022-09-23T07:51:50;11.10;99.90
5919;DHT22;2985;48.142;16.344;2022-09-23T07:57:01;11.40;99.90
5919;DHT22;2985;48.142;16.344;2022-09-23T08:02:10;11.90;99.90
5919;DHT22;2985;48.142;16.344;2022-09-23T08:07:20;12.00;99.90
5919;DHT22;2985;48.142;16.344;2022-09-23T08:12:30;12.30;99.90
5919;DHT22;2985;48.142;16.344;2022-09-23T08:17:39;12.70;99.90
5919;DHT22;2985;48.142;16.344;2022-09-23T08:22:51;12.90;99.90
5919;DHT22;2985;48.142;16.344;2022-09-23T08:28:01;13.20;99.90
5919;DHT22;2985;48.142;16.344;2022-09-23T08:33:11;13.10;99.90
5919;DHT22;2985;48.142;16.344;2022-09-23T08:38:20;13.40;99.90
5919;DHT22;2985;48.142;16.344;2022-09-23T08:43:32;13.40;99.90
5919;DHT22;2985;48.142;16.344;2022-09-23T08:48:43;13.90;99.90
5919;DHT22;2985;48.142;16.344;2022-09-23T08:53:54;13.60;99.90
5919;DHT22;2985;48.142;16.344;2022-09-23T09:04:42;14.00;99.90
5919;DHT22;2985;48.142;16.344;2022-09-23T09:15:04;14.40;99.90
5919;DHT22;2985;48.142;16.344;2022-09-23T09:21:07;14.50;99.90
5919;DHT22;2985;48.142;16.344;2022-09-23T09:26:33;14.60;99.90
5919;DHT22;2985;48.142;16.344;2022-09-23T09:31:47;14.80;99.90
5919;DHT22;2985;48.142;16.344;2022-09-23T09:37:06;14.70;99.90
5919;DHT22;2985;48.142;16.344;2022-09-23T09:42:50;14.90;99.90
5919;DHT22;2985;48.142;16.344;2022-09-23T09:48:07;15.00;99.90
5919;DHT22;2985;48.142;16.344;2022-09-23T09:58:54;15.10;99.90
5919;DHT22;2985;48.142;16.344;2022-09-23T10:04:17;15.30;99.90
5919;DHT22;2985;48.142;16.344;2022-09-23T10:09:32;15.40;99.90
5919;DHT22;2985;48.142;16.344;2022-09-23T10:14:45;15.50;99.90
5919;DHT22;2985;48.142;16.344;2022-09-23T10:20:00;15.50;99.80
5919;DHT22;2985;48.142;16.344;2022-09-23T10:25:20;15.60;99.40
5919;DHT22;2985;48.142;16.344;2022-09-23T10:30:32;15.70;99.50
5919;DHT22;2985;48.142;16.344;2022-09-23T10:35:52;15.70;99.20
5919;DHT22;2985;48.142;16.344;2022-09-23T10:41:12;15.90;99.00
5919;DHT22;2985;48.142;16.344;2022-09-23T10:47:01;15.90;98.70
5919;DHT22;2985;48.142;16.344;2022-09-23T10:58:16;15.90;96.80
5919;DHT22;2985;48.142;16.344;2022-09-23T11:20:06;16.20;95.80
5919;DHT22;2985;48.142;16.344;2022-09-23T11:30:54;16.50;95.50
5919;DHT22;2985;48.142;16.344;2022-09-23T11:36:20;16.60;94.30
5919;DHT22;2985;48.142;16.344;2022-09-23T11:41:36;16.70;95.30
5919;DHT22;2985;48.142;16.344;2022-09-23T11:46:51;16.80;94.00
5919;DHT22;2985;48.142;16.344;2022-09-23T11:52:27;16.50;94.70
5919;DHT22;2985;48.142;16.344;2022-09-23T11:57:50;16.10;93.70
5919;DHT22;2985;48.142;16.344;2022-09-23T12:03:40;16.40;93.90
5919;DHT22;2985;48.142;16.344;2022-09-23T12:09:00;16.70;93.30
5919;DHT22;2985;48.142;16.344;2022-09-23T12:19:49;17.00;92.90
5919;DHT22;2985;48.142;16.344;2022-09-23T12:30:20;17.70;92.10
5919;DHT22;2985;48.142;16.344;2022-09-23T12:35:35;18.00;91.50
5919;DHT22;2985;48.142;16.344;2022-09-23T12:40:46;18.10;91.10
5919;DHT22;2985;48.142;16.344;2022-09-23T12:51:33;18.00;88.40
5919;DHT22;2985;48.142;16.344;2022-09-23T13:07:31;18.70;86.10
5919;DHT22;2985;48.142;16.344;2022-09-23T13:12:42;19.00;83.90
5919;DHT22;2985;48.142;16.344;2022-09-23T20:09:49;12.20;93.30
5919;DHT22;2985;48.142;16.344;2022-09-23T20:14:58;12.10;93.70
5919;DHT22;2985;48.142;16.344;2022-09-23T20:20:09;12.00;93.90
5919;DHT22;2985;48.142;16.344;2022-09-23T20:25:19;11.80;95.10
5919;DHT22;2985;48.142;16.344;2022-09-23T20:30:28;11.60;96.60
5919;DHT22;2985;48.142;16.344;2022-09-23T20:35:37;11.60;96.60
5919;DHT22;2985;48.142;16.344;2022-09-23T20:40:54;11.70;96.60
5919;DHT22;2985;48.142;16.344;2022-09-23T20:46:04;11.60;96.90
5919;DHT22;2985;48.142;16.344;2022-09-23T20:51:13;11.50;96.60
5919;DHT22;2985;48.142;16.344;2022-09-23T20:56:23;11.50;96.80
5919;DHT22;2985;48.142;16.344;2022-09-23T21:01:34;11.50;97.00
5919;DHT22;2985;48.142;16.344;2022-09-23T21:06:44;11.40;97.20
5919;DHT22;2985;48.142;16.344;2022-09-23T21:11:54;11.20;97.70
5919;DHT22;2985;48.142;16.344;2022-09-23T21:17:03;11.10;97.90
5919;DHT22;2985;48.142;16.344;2022-09-23T21:22:12;11.10;98.00
5919;DHT22;2985;48.142;16.344;2022-09-23T21:27:21;11.00;98.50
5919;DHT22;2985;48.142;16.344;2022-09-23T21:32:30;11.00;99.20
5919;DHT22;2985;48.142;16.344;2022-09-23T21:37:39;10.80;99.90
5919;DHT22;2985;48.142;16.344;2022-09-23T21:42:49;10.80;99.90
5919;DHT22;2985;48.142;16.344;2022-09-23T21:47:58;10.80;99.90
5919;DHT22;2985;48.142;16.344;2022-09-23T21:53:09;10.70;99.90
5919;DHT22;2985;48.142;16.344;2022-09-23T21:58:18;10.60;99.90
5919;DHT22;2985;48.142;16.344;2022-09-23T22:03:27;10.60;99.90
5919;DHT22;2985;48.142;16.344;2022-09-23T22:08:41;10.50;99.90
5919;DHT22;2985;48.142;16.344;2022-09-23T22:13:51;10.50;99.90
5919;DHT22;2985;48.142;16.344;2022-09-23T22:19:02;10.40;99.90
5919;DHT22;2985;48.142;16.344;2022-09-23T22:24:14;10.50;99.90
5919;DHT22;2985;48.142;16.344;2022-09-23T22:29:23;10.40;99.90
5919;DHT22;2985;48.142;16.344;2022-09-23T22:34:51;10.30;99.90
5919;DHT22;2985;48.142;16.344;2022-09-23T22:40:11;10.10;99.90
5919;DHT22;2985;48.142;16.344;2022-09-23T22:45:24;10.10;99.90
5919;DHT22;2985;48.142;16.344;2022-09-23T22:50:33;10.10;99.90
5919;DHT22;2985;48.142;16.344;2022-09-23T22:55:56;10.10;99.90
5919;DHT22;2985;48.142;16.344;2022-09-23T23:01:07;10.00;99.90
5919;DHT22;2985;48.142;16.344;2022-09-23T23:06:19;10.00;99.90
5919;DHT22;2985;48.142;16.344;2022-09-23T23:11:28;10.00;99.90
5919;DHT22;2985;48.142;16.344;2022-09-23T23:16:38;10.00;99.90
5919;DHT22;2985;48.142;16.344;2022-09-23T23:21:49;9.80;99.90
5919;DHT22;2985;48.142;16.344;2022-09-23T23:26:59;9.70;99.90
5919;DHT22;2985;48.142;16.344;2022-09-23T23:32:08;9.70;99.90
5919;DHT22;2985;48.142;16.344;2022-09-23T23:37:18;9.60;99.90
5919;DHT22;2985;48.142;16.344;2022-09-23T23:42:27;9.30;99.90
5919;DHT22;2985;48.142;16.344;2022-09-23T23:47:36;9.30;99.90
5919;DHT22;2985;48.142;16.344;2022-09-23T23:52:45;9.00;99.90
5919;DHT22;2985;48.142;16.344;2022-09-23T23:57:54;9.00;99.90
